Terminal Aerodrome Forecast
Issued by NWS Charleston, WV

Current Version | Previous Version | Text Only | Print | Product List | Glossary Off
Versions: 1 2 3 4 5 6 7 8 9 10 11 12 13 14 15 16 17 18 19 20 21 22 23 24

000
FTUS41 KRLX 020500
TAFBKW
TAF
KBKW 020536Z 0206/0306 23007KT P6SM SKC
     FM020800 00000KT 4SM BR SKC
     FM020900 00000KT 1 1/2SM BR SKC
     FM021300 VRB03KT 6SM BR SKC
     FM021400 33004KT P6SM SCT040=

USA.gov is the U.S. government's official web portal to all federal, state and local government web resources and services.